Time;durP1;ratioP1;P1;durP2;ratioP2;P2;SDS_P1;SDS_P2;PMS_P1;PMS_P2;Temp;Humidity;BMP_temperature;BMP_pressure;BME280_temperature;BME280_humidity;BME280_pressure;Samples;Min_cycle;Max_cycle;Signal;HPM_P1;HPM_P2
2022/04/20 00:00:44;;;;;;;3.63;2.78;;;;;;;12.42;60.61;100607.28;5013200;27;102198;-48
2022/04/20 00:03:11;;;;;;;3.80;3.17;;;;;;;12.42;60.56;100611.91;5003388;27;103909;-48
2022/04/20 00:05:38;;;;;;;4.47;3.00;;;;;;;12.43;60.63;100613.53;4996782;27;102755;-49
2022/04/20 00:08:05;;;;;;;4.45;3.20;;;;;;;12.43;60.59;100602.63;5024460;27;101959;-50
2022/04/20 00:10:32;;;;;;;4.03;3.08;;;;;;;12.43;60.54;100608.09;5012217;27;102347;-49
2022/04/20 00:12:59;;;;;;;3.88;3.00;;;;;;;12.42;60.70;100610.00;5005987;27;103920;-49
2022/04/20 00:15:25;;;;;;;3.30;2.90;;;;;;;12.43;60.85;100602.63;4989719;28;102756;-49
2022/04/20 00:17:57;;;;;;;3.10;2.67;;;;;;;12.43;60.75;100613.53;5006117;27;102059;-49
2022/04/20 00:20:24;;;;;;;2.97;2.60;;;;;;;12.43;60.65;100608.09;5003858;28;103604;-49
2022/04/20 00:22:51;;;;;;;4.97;2.67;;;;;;;12.42;60.87;100604.53;4995330;28;103941;-49
2022/04/20 00:25:17;;;;;;;3.78;2.88;;;;;;;12.42;60.48;100617.38;5006822;27;102849;-54
2022/04/20 00:27:44;;;;;;;3.72;2.83;;;;;;;12.42;60.62;100618.19;5003593;28;102545;-49
2022/04/20 00:30:12;;;;;;;3.75;3.05;;;;;;;12.42;60.83;100611.91;5031211;27;102184;-49
2022/04/20 00:32:39;;;;;;;3.80;3.03;;;;;;;12.42;60.63;100611.91;5006279;27;104065;-49
2022/04/20 00:35:08;;;;;;;4.15;2.65;;;;;;;12.42;60.75;100614.66;5001381;27;102620;-49
2022/04/20 00:37:35;;;;;;;3.30;2.78;;;;;;;12.42;60.97;100615.47;4999728;27;102567;-49
2022/04/20 00:40:03;;;;;;;3.50;3.08;;;;;;;12.42;60.77;100617.38;5004460;27;102261;-49
2022/04/20 00:42:31;;;;;;;3.95;3.10;;;;;;;12.42;61.04;100617.38;4993438;27;104144;-49
2022/04/20 00:45:05;;;;;;;3.90;3.05;;;;;;;12.42;60.77;100611.91;4999233;28;102518;-50
2022/04/20 00:47:35;;;;;;;3.07;2.73;;;;;;;12.42;60.73;100611.91;4995729;28;103545;-49
2022/04/20 00:50:02;;;;;;;3.13;2.83;;;;;;;12.42;60.60;100609.19;5004776;28;102505;-48
2022/04/20 00:52:31;;;;;;;3.25;2.50;;;;;;;12.43;60.88;100608.91;5001729;28;103148;-49
2022/04/20 00:54:58;;;;;;;2.78;2.53;;;;;;;12.43;60.87;100613.53;5002273;28;102614;-49
2022/04/20 00:57:25;;;;;;;3.45;2.80;;;;;;;12.43;60.90;100616.28;4999832;28;102487;-49
2022/04/20 00:59:54;;;;;;;2.40;2.15;;;;;;;12.45;60.48;100616.81;5007975;28;102541;-49
2022/04/20 01:02:21;;;;;;;2.78;2.53;;;;;;;12.45;60.77;100625.00;5005057;28;103845;-49
2022/04/20 01:04:48;;;;;;;4.00;2.40;;;;;;;12.46;60.74;100627.44;4999202;28;102800;-48
2022/04/20 01:07:16;;;;;;;3.63;2.58;;;;;;;12.46;60.92;100613.78;5003530;28;102841;-49
2022/04/20 01:09:45;;;;;;;3.38;2.63;;;;;;;12.46;60.80;100618.44;5005383;27;102718;-48
2022/04/20 01:12:14;;;;;;;3.13;2.77;;;;;;;12.46;61.02;100621.16;4999936;28;103985;-49
2022/04/20 01:14:41;;;;;;;3.05;2.75;;;;;;;12.46;60.56;100623.91;5000325;28;102490;-49
2022/04/20 01:17:09;;;;;;;3.75;2.55;;;;;;;12.47;60.94;100630.97;4999606;28;104316;-49
2022/04/20 01:19:38;;;;;;;3.40;2.95;;;;;;;12.46;61.04;100630.16;5004054;27;102608;-49
2022/04/20 01:22:16;;;;;;;2.92;2.60;;;;;;;12.46;61.03;100623.91;5001866;27;103926;-49
2022/04/20 01:24:45;;;;;;;2.95;2.63;;;;;;;12.46;61.02;100635.63;5019847;27;102875;-50
2022/04/20 01:27:16;;;;;;;3.70;2.80;;;;;;;12.46;60.94;100632.88;5027119;27;102109;-49
2022/04/20 01:29:42;;;;;;;4.07;3.00;;;;;;;12.46;61.05;100646.53;5028596;27;103205;-49
2022/04/20 01:32:09;;;;;;;3.35;2.72;;;;;;;12.46;60.99;100645.72;5016882;27;104103;-49
2022/04/20 01:34:35;;;;;;;3.85;3.00;;;;;;;12.47;60.94;100652.81;5009665;27;102502;-49
2022/04/20 01:37:04;;;;;;;;;;;;;;;12.47;60.87;100652.81;5006143;27;102037;-50
2022/04/20 01:39:32;;;;;;;2.65;2.45;;;;;;;12.47;61.08;100652.81;5015698;27;102533;-49
2022/04/20 01:41:58;;;;;;;3.92;3.30;;;;;;;12.46;61.02;100653.91;5020804;27;103895;-49
2022/04/20 01:44:25;;;;;;;8.02;2.80;;;;;;;12.46;60.98;100643.81;5022485;27;102144;-50
2022/04/20 01:46:52;;;;;;;4.32;3.25;;;;;;;12.46;60.92;100646.53;5028816;27;102602;-50
2022/04/20 01:49:19;;;;;;;3.47;2.70;;;;;;;12.47;60.87;100647.34;5017176;27;103025;-48
2022/04/20 01:51:50;;;;;;;2.97;2.63;;;;;;;12.46;61.03;100643.00;5006517;28;106937;-49
2022/04/20 01:54:18;;;;;;;3.60;2.78;;;;;;;12.46;60.73;100653.91;5024632;27;102492;-49
2022/04/20 01:56:46;;;;;;;2.88;2.63;;;;;;;12.46;61.04;100656.66;5006614;27;102362;-48
2022/04/20 01:59:15;;;;;;;3.63;2.80;;;;;;;12.46;60.94;100656.66;5011019;27;102447;-49
2022/04/20 02:04:27;;;;;;;3.25;2.75;;;;;;;12.46;60.97;100662.91;4991360;27;102471;-49
2022/04/20 02:06:55;;;;;;;2.97;2.67;;;;;;;12.45;61.04;100655.84;4997808;27;102359;-51
2022/04/20 02:09:22;;;;;;;3.35;2.65;;;;;;;12.45;61.11;100660.47;4995038;27;102544;-49
2022/04/20 02:11:50;;;;;;;3.55;3.03;;;;;;;12.46;60.78;100662.09;5009363;27;103913;-49
2022/04/20 02:14:19;;;;;;;3.17;2.65;;;;;;;12.45;60.74;100666.75;5011276;27;102667;-49
2022/04/20 02:16:46;;;;;;;3.25;2.83;;;;;;;12.45;60.94;100665.94;5017484;27;102397;-49
2022/04/20 02:19:13;;;;;;;2.83;2.53;;;;;;;12.45;61.33;100661.28;4992700;27;102267;-49
2022/04/20 02:21:42;;;;;;;3.55;3.05;;;;;;;12.45;61.02;100657.75;5006135;27;103876;-49
2022/04/20 02:24:10;;;;;;;3.10;2.80;;;;;;;12.44;61.27;100645.19;5007959;27;102692;-50
2022/04/20 02:26:36;;;;;;;3.03;2.60;;;;;;;12.43;61.04;100651.75;5005411;27;102362;-49
2022/04/20 02:29:05;;;;;;;4.22;3.13;;;;;;;12.45;61.09;100657.75;5009351;27;102233;-48
2022/04/20 02:31:32;;;;;;;3.55;2.53;;;;;;;12.45;61.07;100649.56;5007617;27;104174;-49
2022/04/20 02:33:58;;;;;;;3.75;2.88;;;;;;;12.45;60.96;100649.56;5008498;27;102362;-49
2022/04/20 02:36:25;;;;;;;2.92;2.72;;;;;;;12.45;61.15;100655.84;4995458;27;103891;-48
2022/04/20 02:38:55;;;;;;;3.60;3.00;;;;;;;12.44;60.93;100651.50;4995584;27;102315;-49
2022/04/20 02:41:21;;;;;;;3.17;2.88;;;;;;;12.43;61.07;100652.56;4990637;27;103952;-49
2022/04/20 02:43:49;;;;;;;3.30;2.47;;;;;;;12.44;61.05;100659.69;4991095;28;102352;-48
2022/04/20 02:46:17;;;;;;;3.20;2.85;;;;;;;12.45;60.79;100655.03;4991543;27;102309;-48
2022/04/20 02:48:43;;;;;;;3.53;2.72;;;;;;;12.45;61.14;100665.94;4991840;27;102290;-48
2022/04/20 02:51:10;;;;;;;2.92;2.50;;;;;;;12.43;60.91;100659.94;4989957;28;104183;-48
2022/04/20 02:53:49;;;;;;;2.63;2.42;;;;;;;12.43;61.06;100668.13;5005033;27;102473;-49
2022/04/20 02:56:16;;;;;;;3.42;2.53;;;;;;;12.43;61.41;100668.13;5007667;27;102257;-49
2022/04/20 02:58:43;;;;;;;3.15;2.80;;;;;;;12.42;61.13;100666.50;4997791;27;102711;-48
2022/04/20 03:01:28;;;;;;;4.75;2.67;;;;;;;12.43;61.19;100674.41;4990695;27;103958;-49
2022/04/20 03:03:54;;;;;;;;;;;;;;;12.43;61.13;100668.13;4991283;27;102039;-49
2022/04/20 03:06:20;;;;;;;3.10;2.55;;;;;;;12.43;61.06;100673.59;5002911;27;102613;-49
2022/04/20 03:08:47;;;;;;;3.78;2.80;;;;;;;12.43;61.39;100679.03;4997675;27;102969;-49
2022/04/20 03:11:16;;;;;;;2.90;2.60;;;;;;;12.44;61.53;100676.06;4993516;27;103869;-49
2022/04/20 03:13:44;;;;;;;3.78;3.03;;;;;;;12.42;61.50;100671.97;5007345;27;102160;-49
2022/04/20 03:16:10;;;;;;;3.03;2.70;;;;;;;12.43;61.20;100679.84;5003875;27;102485;-49
2022/04/20 03:18:40;;;;;;;3.58;2.47;;;;;;;12.43;61.26;100676.31;4991177;28;102491;-49
2022/04/20 03:21:06;;;;;;;3.33;2.88;;;;;;;12.43;61.45;100679.84;4991684;28;103940;-49
2022/04/20 03:23:37;;;;;;;3.53;3.00;;;;;;;12.44;61.30;100680.66;5001241;28;102461;-49
2022/04/20 03:26:04;;;;;;;3.20;2.60;;;;;;;12.42;61.34;100683.69;4994309;27;102662;-49
2022/04/20 03:28:31;;;;;;;2.80;2.22;;;;;;;12.43;61.45;100679.84;5021884;27;102584;-49
2022/04/20 03:30:59;;;;;;;2.95;2.40;;;;;;;12.43;61.30;100679.03;5021668;27;103918;-49
2022/04/20 03:33:27;;;;;;;2.70;2.50;;;;;;;12.43;61.09;100684.50;5028217;27;102089;-49
2022/04/20 03:35:55;;;;;;;2.85;2.47;;;;;;;12.42;61.13;100686.44;5017887;27;102624;-49
2022/04/20 03:38:22;;;;;;;4.05;2.40;;;;;;;12.43;61.41;100689.97;5021991;27;102403;-49
2022/04/20 03:40:48;;;;;;;3.17;2.80;;;;;;;12.42;61.30;100688.34;5024219;27;103753;-49
2022/04/20 03:43:17;;;;;;;3.03;2.50;;;;;;;12.43;61.50;100689.97;5018856;27;102907;-49
2022/04/20 03:45:49;;;;;;;3.35;2.70;;;;;;;12.43;61.42;100703.63;5019725;27;102450;-48
2022/04/20 03:48:16;;;;;;;2.90;2.60;;;;;;;12.42;61.40;100704.72;5036414;27;102149;-49
2022/04/20 03:50:43;;;;;;;2.88;2.30;;;;;;;12.44;61.27;100713.41;5007418;27;104267;-49
2022/04/20 03:53:11;;;;;;;3.85;2.75;;;;;;;12.43;61.47;100711.81;4998836;27;102491;-49
2022/04/20 03:55:38;;;;;;;2.80;2.50;;;;;;;12.43;61.23;100718.06;4988969;27;102514;-51
2022/04/20 03:58:05;;;;;;;4.07;2.83;;;;;;;12.43;61.38;100722.72;4993592;28;102249;-50
2022/04/20 04:00:33;;;;;;;3.28;2.80;;;;;;;12.43;61.34;100722.72;4998121;28;104007;-49
2022/04/20 04:03:00;;;;;;;3.50;2.70;;;;;;;12.43;61.57;100722.72;5007587;28;102431;-49
2022/04/20 04:05:27;;;;;;;3.22;2.50;;;;;;;12.44;61.72;100735.25;4996952;28;102383;-49
2022/04/20 04:07:56;;;;;;;2.75;2.53;;;;;;;12.42;61.42;100727.38;4997808;27;102216;-49
2022/04/20 04:10:23;;;;;;;2.92;2.38;;;;;;;12.42;61.67;100721.91;5006928;28;104034;-49
2022/04/20 04:12:50;;;;;;;2.63;2.40;;;;;;;12.43;61.43;100733.63;5007902;27;102476;-49
2022/04/20 04:15:17;;;;;;;2.60;2.40;;;;;;;12.43;61.30;100728.19;5019039;27;102338;-49
2022/04/20 04:18:04;;;;;;;4.63;2.55;;;;;;;12.43;61.32;100728.19;5017171;27;102385;-49
2022/04/20 04:20:31;;;;;;;3.70;2.88;;;;;;;12.43;61.35;100731.72;5026640;27;103931;-49
2022/04/20 04:23:00;;;;;;;3.65;2.50;;;;;;;12.43;61.42;100739.09;5017442;27;102577;-49
2022/04/20 04:25:29;;;;;;;3.33;2.90;;;;;;;12.43;61.45;100739.09;5025258;27;102803;-49
2022/04/20 04:27:56;;;;;;;3.37;2.47;;;;;;;12.43;61.47;100744.56;5013947;27;102553;-49
2022/04/20 04:30:22;;;;;;;2.38;2.17;;;;;;;12.43;61.41;100750.00;4999430;28;103748;-49
2022/04/20 04:32:52;;;;;;;3.17;2.40;;;;;;;12.43;61.19;100756.28;4988988;28;103751;-49
2022/04/20 04:35:18;;;;;;;3.15;2.55;;;;;;;12.42;61.24;100754.66;4995523;28;102142;-48
2022/04/20 04:38:02;;;;;;;2.85;2.33;;;;;;;12.42;61.42;100754.66;4996375;28;102436;-49
2022/04/20 04:40:31;;;;;;;2.40;2.20;;;;;;;12.42;61.35;100768.31;4992296;28;103972;-49
2022/04/20 04:42:57;;;;;;;3.38;2.88;;;;;;;12.42;61.47;100765.56;4988645;28;102596;-49
2022/04/20 04:50:54;;;;;;;3.13;2.83;;;;;;;12.42;61.44;100770.22;5001271;27;103783;-49
2022/04/20 04:53:22;;;;;;;2.30;2.10;;;;;;;12.43;61.77;100774.56;5020981;27;102357;-49
2022/04/20 04:55:52;;;;;;;2.75;2.33;;;;;;;12.42;61.71;100781.13;5021348;27;102264;-49
2022/04/20 04:58:19;;;;;;;3.40;2.60;;;;;;;12.42;61.70;100781.13;5025716;27;102177;-49
2022/04/20 05:00:45;;;;;;;3.15;2.70;;;;;;;12.41;61.44;100780.31;5024652;27;103904;-49
2022/04/20 05:03:14;;;;;;;3.50;2.45;;;;;;;12.43;61.56;100777.31;5007875;27;102350;-49
2022/04/20 05:05:51;;;;;;;3.47;3.05;;;;;;;12.43;61.37;100782.75;5021791;28;102513;-50
2022/04/20 05:08:18;;;;;;;2.95;2.67;;;;;;;12.43;61.55;100790.94;5017702;27;102417;-49
2022/04/20 05:10:54;;;;;;;2.90;2.60;;;;;;;12.43;61.45;100790.94;4996935;28;103944;-49
2022/04/20 05:13:21;;;;;;;3.50;2.95;;;;;;;12.42;61.58;100792.88;4997869;27;102561;-48
2022/04/20 05:16:05;;;;;;;3.35;2.90;;;;;;;12.43;61.44;100801.88;4999382;27;102345;-49
2022/04/20 05:18:32;;;;;;;3.25;2.55;;;;;;;12.42;61.45;100808.44;5003126;27;102457;-49
2022/04/20 05:20:59;;;;;;;2.92;2.30;;;;;;;12.41;61.42;100807.63;5018732;27;103851;-49
2022/04/20 05:23:26;;;;;;;3.13;2.80;;;;;;;12.42;61.04;100819.34;4995538;28;102241;-49
2022/04/20 05:25:53;;;;;;;2.85;2.55;;;;;;;12.42;61.47;100816.63;5003545;27;102361;-49
2022/04/20 05:28:20;;;;;;;3.15;2.70;;;;;;;12.42;61.43;100819.34;4999903;27;102514;-49
2022/04/20 05:30:46;;;;;;;5.13;3.15;;;;;;;12.40;61.81;100827.81;5013244;27;104071;-48
2022/04/20 05:33:14;;;;;;;3.88;3.35;;;;;;;12.40;61.28;100816.06;5004725;27;102482;-49
2022/04/20 05:35:40;;;;;;;5.10;3.58;;;;;;;12.39;61.45;100820.72;4997356;27;102544;-49
2022/04/20 05:43:40;;;;;;;5.88;3.72;;;;;;;12.40;61.22;100821.53;4998914;27;102264;-49
2022/04/20 05:46:07;;;;;;;4.80;3.30;;;;;;;12.41;61.63;100817.72;4993200;28;102945;-49
2022/04/20 05:48:34;;;;;;;3.55;2.88;;;;;;;12.41;61.26;100806.81;4992522;28;102522;-48
2022/04/20 05:51:00;;;;;;;4.93;2.88;;;;;;;12.42;61.42;100808.44;4994639;28;103934;-49
2022/04/20 05:53:27;;;;;;;3.90;2.90;;;;;;;12.42;61.47;100802.97;4991967;28;102532;-50
2022/04/20 05:55:55;;;;;;;3.47;3.05;;;;;;;12.42;61.30;100802.97;4989027;28;102516;-49
2022/04/20 05:58:21;;;;;;;4.40;3.05;;;;;;;12.43;61.15;100799.13;4991841;28;102652;-49
2022/04/20 06:00:48;;;;;;;4.53;2.80;;;;;;;12.45;61.40;100807.88;5005317;27;103897;-49
2022/04/20 06:03:14;;;;;;;3.63;2.88;;;;;;;12.45;61.50;100807.88;5031103;27;101943;-48
2022/04/20 06:05:42;;;;;;;3.33;2.78;;;;;;;12.45;61.04;100807.88;5000460;27;103153;-49
2022/04/20 06:08:08;;;;;;;4.53;2.97;;;;;;;12.45;61.33;100808.69;5001026;27;102510;-49
2022/04/20 06:10:35;;;;;;;3.28;2.45;;;;;;;12.45;61.44;100813.34;5004012;27;103934;-49
2022/04/20 06:13:03;;;;;;;3.47;2.80;;;;;;;12.45;61.54;100811.41;5005603;27;102193;-48
2022/04/20 06:15:33;;;;;;;3.58;2.83;;;;;;;12.46;61.49;100814.97;5003386;27;102651;-49
2022/04/20 06:17:59;;;;;;;3.70;2.92;;;;;;;12.46;61.39;100817.69;5007848;27;102463;-48
2022/04/20 06:20:26;;;;;;;5.40;3.47;;;;;;;12.46;61.41;100820.41;5008381;27;103976;-48
2022/04/20 06:22:56;;;;;;;4.82;2.97;;;;;;;12.47;61.42;100813.84;5007687;27;102140;-49
2022/04/20 06:25:22;;;;;;;4.78;2.72;;;;;;;12.47;61.49;100822.03;5006008;27;102704;-49
2022/04/20 06:27:49;;;;;;;4.75;3.03;;;;;;;12.47;61.53;100816.56;5009105;28;102548;-49
2022/04/20 06:30:17;;;;;;;3.95;2.83;;;;;;;12.47;61.43;100809.19;5005740;28;105483;-50
2022/04/20 06:32:44;;;;;;;3.67;2.80;;;;;;;12.48;61.39;100807.31;5000064;28;102821;-48
2022/04/20 06:35:13;;;;;;;4.13;3.00;;;;;;;12.49;61.53;100803.47;5003843;27;102559;-48
2022/04/20 06:37:39;;;;;;;4.70;3.20;;;;;;;12.49;61.77;100804.28;5008036;27;102312;-49
2022/04/20 06:40:06;;;;;;;3.80;2.90;;;;;;;12.49;61.50;100800.75;5009424;27;109206;-51
2022/04/20 06:42:51;;;;;;;3.92;2.85;;;;;;;12.49;61.47;100808.94;5003854;28;102503;-49
2022/04/20 06:45:19;;;;;;;4.13;2.70;;;;;;;12.50;61.45;100816.03;5004805;27;103402;-49
2022/04/20 06:48:04;;;;;;;4.22;3.03;;;;;;;12.50;61.42;100810.56;5007661;27;103528;-49
2022/04/20 06:50:30;;;;;;;3.55;2.90;;;;;;;12.51;61.37;100812.19;5013781;27;103884;-48
2022/04/20 06:58:34;;;;;;;4.40;3.15;;;;;;;12.52;61.38;100808.38;5005375;27;102388;-50
2022/04/20 07:01:04;;;;;;;4.35;2.92;;;;;;;12.53;61.15;100804.53;5004846;27;103934;-49
2022/04/20 07:03:31;;;;;;;6.43;3.15;;;;;;;12.53;61.41;100807.28;4991518;27;102144;-49
2022/04/20 07:05:59;;;;;;;4.60;2.95;;;;;;;12.53;61.31;100810.00;4991156;28;102102;-49
2022/04/20 07:08:26;;;;;;;4.68;2.92;;;;;;;12.54;61.08;100805.34;5003221;28;103130;-49
2022/04/20 07:10:54;;;;;;;4.65;3.40;;;;;;;12.54;61.02;100810.81;4992445;28;103858;-49
2022/04/20 07:13:22;;;;;;;4.00;3.10;;;;;;;12.53;61.15;100810.00;4991096;28;102660;-50
2022/04/20 07:15:48;;;;;;;5.18;3.33;;;;;;;12.54;61.08;100808.91;5003037;27;102470;-48
2022/04/20 07:18:29;;;;;;;4.13;3.20;;;;;;;12.53;61.17;100804.53;5006232;27;102808;-49
2022/04/20 07:20:56;;;;;;;4.07;3.00;;;;;;;12.54;61.11;100800.72;5008568;27;104105;-50
2022/04/20 07:23:22;;;;;;;4.55;3.70;;;;;;;12.55;61.24;100804.25;5043927;27;102264;-48
2022/04/20 07:25:49;;;;;;;5.07;3.67;;;;;;;12.55;61.34;100796.06;5008307;27;102322;-49
2022/04/20 07:28:15;;;;;;;4.40;3.30;;;;;;;12.55;61.22;100798.78;5007109;27;102501;-49
2022/04/20 07:30:42;;;;;;;4.78;3.05;;;;;;;12.56;61.03;100797.72;5004952;28;104037;-49
2022/04/20 07:33:09;;;;;;;5.05;3.30;;;;;;;12.55;61.39;100791.44;5007550;28;102288;-49
2022/04/20 07:35:37;;;;;;;4.88;3.00;;;;;;;12.55;60.77;100788.72;5008154;28;102154;-48
2022/04/20 07:38:04;;;;;;;4.28;3.17;;;;;;;12.57;60.96;100793.88;4998628;27;102597;-49
2022/04/20 07:40:31;;;;;;;5.50;3.38;;;;;;;12.57;61.01;100791.97;4993403;28;107919;-52
2022/04/20 07:43:02;;;;;;;4.40;3.63;;;;;;;12.58;61.19;100790.03;4992196;28;102515;-50
2022/04/20 07:45:29;;;;;;;5.63;3.42;;;;;;;12.57;61.05;100783.75;5002743;28;102399;-48
2022/04/20 07:47:58;;;;;;;5.78;3.65;;;;;;;12.58;61.06;100774.47;5003024;28;102504;-50
2022/04/20 07:50:25;;;;;;;3.78;2.90;;;;;;;12.58;61.12;100779.13;4996879;28;104053;-49
2022/04/20 07:52:55;;;;;;;5.03;3.75;;;;;;;12.58;61.08;100773.66;4996811;27;102299;-48
2022/04/20 07:55:22;;;;;;;6.78;3.40;;;;;;;12.59;60.84;100776.13;5003624;28;102128;-49
2022/04/20 07:57:50;;;;;;;5.50;3.83;;;;;;;12.59;60.90;100783.50;5007969;28;103236;-48
2022/04/20 08:00:17;;;;;;;5.07;3.65;;;;;;;12.59;60.78;100775.31;5007735;27;103933;-49
2022/04/20 08:02:46;;;;;;;6.47;3.53;;;;;;;12.59;60.65;100773.41;5005030;28;101985;-49
2022/04/20 08:05:14;;;;;;;6.25;4.05;;;;;;;12.59;61.03;100769.84;5004558;28;102353;-49
2022/04/20 08:07:41;;;;;;;;;;;;;;;12.59;60.74;100770.66;5006904;28;102195;-48
2022/04/20 08:10:12;;;;;;;;;;;;;;;12.59;60.66;100770.66;5002713;28;103867;-49
2022/04/20 08:12:41;;;;;;;4.28;3.38;;;;;;;12.59;60.83;100770.66;5002120;27;102431;-50
2022/04/20 08:15:09;;;;;;;4.63;3.10;;;;;;;12.59;60.72;100765.19;5007359;27;102781;-51
2022/04/20 08:17:37;;;;;;;6.27;3.33;;;;;;;12.60;60.56;100783.22;5005541;27;101991;-51
2022/04/20 08:20:17;;;;;;;4.07;3.33;;;;;;;12.60;60.59;100777.75;5017586;27;103844;-49
2022/04/20 08:22:45;;;;;;;4.05;3.15;;;;;;;12.59;60.67;100776.13;5014861;27;102810;-50
2022/04/20 08:25:15;;;;;;;;;;;;;;;12.59;60.60;100778.84;5008352;27;102273;-50
2022/04/20 08:27:41;;;;;;;3.70;3.30;;;;;;;12.59;60.55;100770.66;4994695;28;102661;-49
2022/04/20 08:30:09;;;;;;;4.35;3.30;;;;;;;12.59;60.47;100773.41;5002524;28;104124;-49
2022/04/20 08:32:38;;;;;;;5.20;4.05;;;;;;;12.59;60.62;100765.19;4999387;28;102495;-49
2022/04/20 08:35:07;;;;;;;4.55;3.35;;;;;;;12.59;60.65;100776.13;5002481;27;102450;-52
2022/04/20 08:37:33;;;;;;;3.90;3.30;;;;;;;12.59;60.82;100770.66;5005380;27;103529;-49
2022/04/20 08:40:00;;;;;;;4.18;3.35;;;;;;;12.59;60.60;100778.03;5007066;28;104131;-49
2022/04/20 08:42:32;;;;;;;4.30;3.42;;;;;;;12.59;60.81;100789.78;5002310;28;102190;-49
2022/04/20 08:45:02;;;;;;;3.55;3.13;;;;;;;12.59;60.61;100787.03;4998847;27;102336;-49
2022/04/20 08:47:35;;;;;;;3.80;2.75;;;;;;;12.58;60.66;100771.75;5005948;27;102443;-49
2022/04/20 08:50:03;;;;;;;4.10;3.65;;;;;;;12.59;60.65;100776.13;5003880;28;103870;-49
2022/04/20 08:52:39;;;;;;;4.57;3.20;;;;;;;12.59;60.79;100770.66;5000956;28;103531;-49
2022/04/20 08:55:07;;;;;;;4.05;3.20;;;;;;;12.59;60.71;100775.31;4991944;28;102232;-50
2022/04/20 08:57:37;;;;;;;4.53;3.33;;;;;;;12.59;60.61;100773.41;5002854;28;102215;-49
2022/04/20 09:00:07;;;;;;;4.68;3.45;;;;;;;12.58;60.74;100769.00;5004372;28;103889;-49
2022/04/20 09:02:34;;;;;;;6.07;3.95;;;;;;;12.59;60.79;100759.75;5000847;27;102168;-49
2022/04/20 09:05:03;;;;;;;4.18;3.28;;;;;;;12.59;60.75;100767.13;4998646;28;103608;-50
2022/04/20 09:07:31;;;;;;;3.80;3.50;;;;;;;12.59;60.43;100770.66;5005082;27;102726;-49
2022/04/20 09:09:58;;;;;;;4.57;3.17;;;;;;;12.59;60.62;100770.66;4995446;28;108252;-50
2022/04/20 09:12:26;;;;;;;3.85;3.28;;;;;;;12.58;60.51;100768.19;4998886;27;102047;-48
2022/04/20 09:14:56;;;;;;;3.42;2.95;;;;;;;12.59;60.46;100765.19;4997026;28;103721;-49
2022/04/20 09:17:44;;;;;;;3.90;3.50;;;;;;;12.58;60.70;100763.56;5007695;27;102011;-50
2022/04/20 09:20:17;;;;;;;4.60;3.50;;;;;;;12.59;60.73;100770.66;5032168;27;103960;-50
2022/04/20 09:23:00;;;;;;;3.70;3.22;;;;;;;12.59;60.58;100762.47;5007832;27;102209;-48
2022/04/20 09:25:31;;;;;;;4.30;3.28;;;;;;;12.58;60.43;100769.00;4998234;27;102100;-49
2022/04/20 09:27:58;;;;;;;4.88;3.60;;;;;;;12.58;60.47;100765.47;5003337;27;103648;-49
2022/04/20 09:30:32;;;;;;;3.67;3.22;;;;;;;12.58;60.70;100769.00;5010076;27;103832;-49
2022/04/20 09:33:08;;;;;;;4.28;3.60;;;;;;;12.60;60.80;100761.38;5024492;27;103101;-49
2022/04/20 09:35:41;;;;;;;3.70;3.28;;;;;;;12.59;60.58;100764.38;5013831;27;101948;-48
2022/04/20 09:38:08;;;;;;;4.63;3.10;;;;;;;12.60;60.50;100761.38;4997138;27;102287;-49
2022/04/20 09:40:38;;;;;;;4.43;3.35;;;;;;;12.59;60.66;100762.47;4991284;27;104017;-49
2022/04/20 09:43:09;;;;;;;4.00;3.60;;;;;;;12.59;60.72;100765.19;4992241;28;101931;-50
2022/04/20 09:45:37;;;;;;;3.53;2.88;;;;;;;12.59;60.67;100759.75;5002495;27;102153;-49
2022/04/20 09:51:10;;;;;;;3.85;3.47;;;;;;;12.59;60.47;100767.94;4992236;28;108702;-51
2022/04/20 09:53:38;;;;;;;4.00;3.60;;;;;;;12.60;60.56;100761.38;5000484;28;102354;-49
2022/04/20 09:56:18;;;;;;;3.65;3.30;;;;;;;12.60;60.58;100744.97;5005860;28;102118;-49
2022/04/20 09:58:46;;;;;;;4.25;3.70;;;;;;;12.60;60.53;100758.63;5013147;27;102699;-49
2022/04/20 10:01:27;;;;;;;;;;;;;;;12.61;60.59;100767.63;4998074;27;103898;-49
2022/04/20 10:03:55;;;;;;;4.15;3.58;;;;;;;12.60;60.68;100766.81;4999010;27;102772;-49
2022/04/20 10:06:22;;;;;;;5.05;3.58;;;;;;;12.61;60.52;100767.63;5006585;27;101981;-49
2022/04/20 10:08:48;;;;;;;5.43;3.70;;;;;;;12.61;60.50;100779.38;4997171;27;102614;-49
2022/04/20 10:11:18;;;;;;;3.83;3.40;;;;;;;12.60;60.51;100772.28;5003770;28;108274;-48
2022/04/20 10:16:05;;;;;;;3.85;3.25;;;;;;;12.61;60.34;100782.09;5001668;28;102149;-49
2022/04/20 10:16:37;;;;;;;4.88;3.25;;;;;;;12.61;60.52;100782.09;4999889;28;102346;-48
2022/04/20 10:19:06;;;;;;;3.53;3.20;;;;;;;12.62;60.45;100789.22;5005008;27;102510;-49
2022/04/20 10:21:37;;;;;;;4.25;3.50;;;;;;;12.62;60.62;100775.56;5009358;27;103978;-49
2022/04/20 10:24:10;;;;;;;3.78;3.38;;;;;;;12.63;60.39;100776.38;5007231;28;102156;-48
2022/04/20 10:26:37;;;;;;;3.85;3.47;;;;;;;12.63;60.39;100781.84;4997045;27;102693;-49
2022/04/20 10:29:10;;;;;;;5.13;3.63;;;;;;;12.62;60.33;100772.84;4999611;28;102784;-49
2022/04/20 10:31:44;;;;;;;3.90;3.50;;;;;;;12.62;60.45;100775.56;5002146;28;103743;-48
2022/04/20 10:34:13;;;;;;;4.15;3.75;;;;;;;12.63;60.54;100776.38;4997155;28;102469;-48
2022/04/20 10:36:55;;;;;;;5.03;3.50;;;;;;;12.62;60.56;100772.84;5004266;27;102448;-49
2022/04/20 10:39:23;;;;;;;4.03;3.60;;;;;;;12.62;60.37;100775.56;5000702;27;102652;-49
2022/04/20 10:42:17;;;;;;;4.57;3.50;;;;;;;12.62;60.63;100770.09;4997454;27;103859;-48
2022/04/20 10:45:03;;;;;;;3.85;3.45;;;;;;;12.63;60.62;100771.72;5012747;27;102143;-48
2022/04/20 10:47:33;;;;;;;4.55;3.58;;;;;;;12.63;60.58;100769.00;5011668;27;102602;-48
2022/04/20 10:50:19;;;;;;;4.95;3.70;;;;;;;12.63;60.58;100782.66;5008291;28;102489;-48
2022/04/20 10:52:56;;;;;;;5.07;3.70;;;;;;;12.64;60.46;100789.72;5002566;27;104054;-48
2022/04/20 10:55:50;;;;;;;4.35;3.22;;;;;;;12.63;60.55;100781.84;5010891;27;102380;-48
2022/04/20 10:58:18;;;;;;;4.85;3.30;;;;;;;12.62;60.58;100783.75;5003433;27;102699;-49
2022/04/20 11:00:45;;;;;;;4.23;3.40;;;;;;;12.63;60.68;100777.19;5010627;27;102783;-49
2022/04/20 11:03:21;;;;;;;3.55;3.22;;;;;;;12.63;60.27;100779.91;4997863;27;103900;-49
2022/04/20 11:05:53;;;;;;;3.80;3.50;;;;;;;12.62;60.56;100775.56;5009371;27;102533;-49
2022/04/20 11:08:20;;;;;;;4.15;3.50;;;;;;;12.62;60.63;100781.03;5008683;27;101789;-49
2022/04/20 11:18:38;;;;;;;3.10;2.85;;;;;;;12.63;60.51;100779.09;5008381;27;102349;-48
2022/04/20 11:19:58;;;;;;;5.28;3.67;;;;;;;12.62;60.49;100770.09;4996269;28;102536;-49
2022/04/20 11:22:24;;;;;;;3.43;3.13;;;;;;;12.62;60.33;100770.09;4993311;28;102688;-49
2022/04/20 11:25:02;;;;;;;3.53;3.00;;;;;;;12.62;60.21;100775.56;4990431;27;103858;-47
2022/04/20 11:27:33;;;;;;;3.50;3.00;;;;;;;12.62;60.63;100772.00;4998206;27;102477;-49
2022/04/20 11:30:00;;;;;;;3.47;3.17;;;;;;;12.62;60.53;100764.63;4996147;28;102936;-48
2022/04/20 11:32:30;;;;;;;3.65;3.35;;;;;;;12.62;60.58;100764.63;5013198;27;102539;-49
2022/04/20 11:35:05;;;;;;;3.65;3.35;;;;;;;12.63;60.42;100760.81;5006913;27;107906;-48
2022/04/20 11:37:33;;;;;;;4.80;3.80;;;;;;;12.63;60.52;100762.72;5009319;28;102146;-49
2022/04/20 11:40:07;;;;;;;4.05;3.22;;;;;;;12.63;60.46;100755.34;5002688;28;105610;-48
2022/04/20 11:42:35;;;;;;;3.40;3.10;;;;;;;12.62;60.44;100764.63;5002982;27;102467;-48
2022/04/20 11:45:02;;;;;;;4.30;3.90;;;;;;;12.62;60.73;100764.63;5000649;27;104171;-49
2022/04/20 11:47:29;;;;;;;4.07;3.67;;;;;;;12.62;60.53;100772.84;5005064;28;102338;-48
2022/04/20 11:49:56;;;;;;;3.92;3.53;;;;;;;12.62;60.41;100770.09;4993885;27;102369;-48
2022/04/20 11:52:57;;;;;;;3.70;3.40;;;;;;;12.62;60.56;100764.63;5000532;28;102228;-48
2022/04/20 11:55:24;;;;;;;3.75;3.45;;;;;;;12.63;60.41;100766.25;5006429;27;104010;-49
2022/04/20 11:57:52;;;;;;;4.97;3.85;;;;;;;12.63;60.47;100773.66;5009677;27;102448;-48